createdAt,value
2018-06-22T00:00:35.176Z,24.90
2018-06-22T00:03:05.363Z,27.10
2018-06-22T00:05:35.460Z,24.17
2018-06-22T00:08:05.715Z,25.37
2018-06-22T00:10:35.812Z,24.63
2018-06-22T00:13:06.027Z,25.57
2018-06-22T00:15:36.121Z,25.17
2018-06-22T00:18:06.282Z,23.23
2018-06-22T00:20:36.611Z,24.40
2018-06-22T00:23:06.645Z,23.83
2018-06-22T00:25:36.908Z,24.50
2018-06-22T00:28:07.007Z,25.47
2018-06-22T00:30:37.032Z,27.20
2018-06-22T00:33:07.187Z,27.17
2018-06-22T00:35:37.237Z,25.93
2018-06-22T00:38:07.377Z,26.77
2018-06-22T00:40:37.603Z,24.20
2018-06-22T00:43:07.877Z,27.93
2018-06-22T00:45:37.969Z,27.27
2018-06-22T00:48:08.207Z,28.87
2018-06-22T00:50:38.431Z,27.27
2018-06-22T00:53:20.176Z,28.77
2018-06-22T00:55:50.199Z,30.60
2018-06-22T00:58:30.440Z,29.80
2018-06-22T01:01:02.574Z,30.40
2018-06-22T01:03:32.658Z,29.83
2018-06-22T01:06:02.793Z,29.83
2018-06-22T01:08:32.774Z,32.03
2018-06-22T01:11:02.887Z,32.00
2018-06-22T01:13:32.996Z,32.63
2018-06-22T01:16:03.173Z,34.70
2018-06-22T01:18:33.367Z,34.77
2018-06-22T01:21:07.868Z,35.00
2018-06-22T01:23:38.880Z,35.20
2018-06-22T01:26:09.343Z,33.60
2018-06-22T01:28:39.604Z,36.93
2018-06-22T01:31:09.861Z,39.27
2018-06-22T01:33:39.998Z,40.03
2018-06-22T01:36:10.108Z,43.83
2018-06-22T01:38:40.367Z,35.33
2018-06-22T01:41:10.463Z,37.77
2018-06-22T01:43:40.571Z,36.27
2018-06-22T01:46:10.786Z,38.77
2018-06-22T01:48:41.015Z,38.87
2018-06-22T01:51:11.216Z,43.07
2018-06-22T01:53:41.592Z,43.07
2018-06-22T01:56:11.697Z,48.20
2018-06-22T01:59:06.621Z,43.17
2018-06-22T02:01:37.327Z,40.33
2018-06-22T02:04:07.497Z,45.77
2018-06-22T02:06:37.568Z,44.17
2018-06-22T02:09:11.691Z,58.43
2018-06-22T02:11:42.066Z,59.13
2018-06-22T02:14:12.324Z,62.00
2018-06-22T02:16:42.609Z,57.47
2018-06-22T02:19:12.812Z,57.03
2018-06-22T02:21:42.963Z,59.27
2018-06-22T02:24:13.059Z,54.17
2018-06-22T02:26:43.053Z,76.10
2018-06-22T02:29:13.256Z,227.67
2018-06-22T02:31:43.470Z,68.40
2018-06-22T02:34:13.711Z,42.73
2018-06-22T02:36:44.227Z,32.80
2018-06-22T02:39:14.476Z,34.57
2018-06-22T02:41:44.583Z,31.13
2018-06-22T02:44:24.283Z,45.80
2018-06-22T02:46:54.631Z,36.20
2018-06-22T02:49:24.740Z,39.13
2018-06-22T02:51:54.799Z,38.50
2018-06-22T02:54:24.917Z,48.30
2018-06-22T02:56:54.940Z,45.70
2018-06-22T02:59:24.938Z,37.43
2018-06-22T03:01:55.042Z,43.03
2018-06-22T03:04:25.058Z,41.00
2018-06-22T03:06:55.144Z,40.60
2018-06-22T03:09:25.215Z,38.00
2018-06-22T03:11:55.218Z,39.20
2018-06-22T03:14:25.039Z,37.30
2018-06-22T03:16:55.112Z,38.67
2018-06-22T03:19:25.227Z,41.53
2018-06-22T03:21:55.154Z,46.77
2018-06-22T03:24:25.139Z,42.47
2018-06-22T03:26:55.230Z,41.77
2018-06-22T03:29:25.208Z,38.90
2018-06-22T03:31:55.197Z,40.37
2018-06-22T03:34:25.265Z,45.70
2018-06-22T03:36:55.264Z,43.80
2018-06-22T03:39:25.383Z,42.73
2018-06-22T03:41:57.156Z,45.47
2018-06-22T03:44:27.077Z,173.67
2018-06-22T03:46:57.104Z,383.57
2018-06-22T03:49:27.103Z,381.97
2018-06-22T03:51:57.135Z,718.73
2018-06-22T03:54:27.308Z,697.20
2018-06-22T03:56:57.319Z,119.77
2018-06-22T03:59:27.252Z,49.47
2018-06-22T04:01:57.242Z,67.60
2018-06-22T04:04:27.106Z,46.60
2018-06-22T04:06:57.157Z,425.20
2018-06-22T04:09:27.264Z,100.83
2018-06-22T04:11:57.309Z,113.47
2018-06-22T04:14:27.377Z,115.07
2018-06-22T04:16:57.336Z,112.67
2018-06-22T04:19:27.389Z,103.60
2018-06-22T04:21:57.478Z,73.93
2018-06-22T04:24:27.676Z,63.67
2018-06-22T04:26:57.598Z,54.83
2018-06-22T04:29:27.665Z,50.40
2018-06-22T04:31:57.704Z,58.10
2018-06-22T04:34:27.764Z,61.90
2018-06-22T04:36:58.054Z,61.00
2018-06-22T04:39:28.296Z,54.83
2018-06-22T04:41:58.278Z,50.27
2018-06-22T04:44:28.287Z,44.23
2018-06-22T04:46:58.760Z,52.63
2018-06-22T04:49:28.701Z,50.93
2018-06-22T04:51:58.678Z,40.10
2018-06-22T04:54:28.665Z,37.13
2018-06-22T04:56:58.754Z,43.07
2018-06-22T04:59:28.800Z,42.50
2018-06-22T05:01:58.908Z,43.67
2018-06-22T05:04:33.837Z,33.93
2018-06-22T05:07:03.917Z,35.37
2018-06-22T05:09:33.969Z,36.17
2018-06-22T05:12:04.153Z,38.60
2018-06-22T05:14:34.206Z,36.70
2018-06-22T05:17:04.683Z,33.47
2018-06-22T05:19:34.715Z,31.50
2018-06-22T05:22:05.111Z,26.40
2018-06-22T05:24:35.655Z,31.10
2018-06-22T05:27:05.782Z,30.90
2018-06-22T05:29:36.061Z,31.43
2018-06-22T05:32:06.138Z,29.53
2018-06-22T05:34:36.536Z,25.10
2018-06-22T05:37:08.015Z,27.47
2018-06-22T05:39:38.146Z,23.17
2018-06-22T05:42:08.384Z,25.13
2018-06-22T05:44:38.642Z,23.40
2018-06-22T05:47:09.733Z,26.73
2018-06-22T05:49:43.170Z,26.70
2018-06-22T05:52:14.255Z,24.50
2018-06-22T05:55:29.938Z,21.07
2018-06-22T05:58:01.060Z,26.77
2018-06-22T06:00:57.409Z,22.03
2018-06-22T06:07:24.874Z,22.37
2018-06-22T06:10:02.996Z,25.13
2018-06-22T06:12:36.169Z,26.53
2018-06-22T06:15:06.780Z,27.87
2018-06-22T06:17:37.011Z,24.10
2018-06-22T06:20:11.784Z,15.63
2018-06-22T06:22:44.987Z,22.00
2018-06-22T06:25:19.201Z,24.27
2018-06-22T06:27:49.194Z,25.80
2018-06-22T06:30:20.679Z,25.50
2018-06-22T06:32:50.637Z,21.50
2018-06-22T06:35:21.217Z,24.07
2018-06-22T06:37:51.209Z,24.13
2018-06-22T06:40:21.738Z,25.53
2018-06-22T06:42:51.658Z,27.40
2018-06-22T06:45:21.813Z,28.23
2018-06-22T06:47:51.893Z,24.50
2018-06-22T06:50:22.015Z,24.07
2018-06-22T06:52:52.009Z,24.80
2018-06-22T06:55:21.984Z,23.77
2018-06-22T06:57:51.937Z,22.40
2018-06-22T07:00:28.217Z,23.93
2018-06-22T07:02:58.189Z,23.13
2018-06-22T07:05:28.419Z,19.53
2018-06-22T07:07:58.957Z,22.57
2018-06-22T07:10:29.557Z,20.10
2018-06-22T07:12:59.601Z,20.57
2018-06-22T07:15:34.592Z,19.90
2018-06-22T07:18:05.884Z,19.37
2018-06-22T07:20:37.917Z,18.43
2018-06-22T07:23:09.864Z,18.27
2018-06-22T07:25:40.172Z,18.30
2018-06-22T07:28:10.383Z,17.20
2018-06-22T07:30:41.295Z,17.03
2018-06-22T07:33:11.317Z,15.07
2018-06-22T07:35:41.333Z,16.30
2018-06-22T07:38:11.856Z,15.50
2018-06-22T07:40:41.773Z,13.83
2018-06-22T07:43:12.383Z,15.03
2018-06-22T07:45:42.531Z,16.93
2018-06-22T07:48:12.636Z,15.63
2018-06-22T07:50:44.310Z,15.10
2018-06-22T07:53:15.682Z,15.10
2018-06-22T07:55:45.874Z,16.30
2018-06-22T07:58:15.768Z,14.87
2018-06-22T08:00:45.868Z,10.57
2018-06-22T08:03:15.855Z,14.87
2018-06-22T08:05:45.856Z,14.97
2018-06-22T08:08:16.922Z,14.17
2018-06-22T08:10:47.443Z,14.33
2018-06-22T08:13:17.365Z,14.73
2018-06-22T08:15:47.758Z,14.43
2018-06-22T08:18:18.121Z,12.57
2018-06-22T08:20:48.827Z,12.30
2018-06-22T08:23:19.315Z,11.37
2018-06-22T08:25:49.345Z,13.00
2018-06-22T08:28:19.740Z,11.83
2018-06-22T08:30:50.266Z,12.47
2018-06-22T08:33:20.664Z,12.63
2018-06-22T08:35:51.200Z,13.93
2018-06-22T08:38:21.974Z,13.23
2018-06-22T08:40:52.295Z,11.87
2018-06-22T08:43:22.546Z,11.90
2018-06-22T08:45:54.226Z,12.73
2018-06-22T08:48:25.004Z,13.13
2018-06-22T08:50:54.975Z,15.00
2018-06-22T08:53:25.583Z,12.97
2018-06-22T08:55:55.888Z,14.17
2018-06-22T08:58:26.064Z,12.60
2018-06-22T09:01:10.687Z,12.77
2018-06-22T09:03:41.567Z,13.07
2018-06-22T09:06:36.987Z,13.23
2018-06-22T09:09:09.476Z,12.00
2018-06-22T09:11:41.644Z,11.20
2018-06-22T09:14:11.934Z,9.30
2018-06-22T09:16:42.178Z,10.23
2018-06-22T09:19:12.372Z,10.13
2018-06-22T09:21:43.310Z,10.20
2018-06-22T09:24:13.617Z,10.93
2018-06-22T09:26:43.590Z,11.57
2018-06-22T09:29:13.686Z,9.47
2018-06-22T09:31:43.897Z,10.83
2018-06-22T09:34:14.528Z,9.70
2018-06-22T09:36:55.175Z,9.67
2018-06-22T09:39:25.135Z,11.47
2018-06-22T09:41:55.101Z,10.63
2018-06-22T09:44:36.087Z,9.17
2018-06-22T09:47:06.260Z,10.23
2018-06-22T09:49:36.571Z,8.97
2018-06-22T09:52:06.753Z,9.23
2018-06-22T09:54:36.844Z,9.03
2018-06-22T09:57:07.041Z,9.13
2018-06-22T09:59:37.358Z,9.10
2018-06-22T10:02:07.910Z,9.33
2018-06-22T10:04:37.997Z,8.43
2018-06-22T10:07:08.154Z,8.87
2018-06-22T10:09:43.441Z,6.80
2018-06-22T10:12:13.816Z,8.77
2018-06-22T10:14:43.921Z,8.20
2018-06-22T10:17:13.848Z,8.53
2018-06-22T10:19:44.019Z,8.40
2018-06-22T10:22:13.917Z,8.53
2018-06-22T10:24:43.969Z,10.13
2018-06-22T10:27:21.099Z,8.53
2018-06-22T10:29:51.118Z,7.70
2018-06-22T10:32:21.590Z,8.17
2018-06-22T10:34:51.586Z,7.73
2018-06-22T10:37:22.212Z,8.37
2018-06-22T10:39:52.306Z,8.27
2018-06-22T10:42:35.022Z,7.77
2018-06-22T10:45:05.156Z,7.73
2018-06-22T10:47:35.184Z,8.83
2018-06-22T10:50:05.392Z,9.17
2018-06-22T10:52:35.512Z,8.83
2018-06-22T10:55:05.529Z,9.03
2018-06-22T10:57:35.556Z,9.03
2018-06-22T11:00:06.218Z,8.63
2018-06-22T11:02:36.706Z,8.33
2018-06-22T11:05:06.806Z,8.50
2018-06-22T11:07:36.887Z,7.90
2018-06-22T11:10:06.922Z,9.03
2018-06-22T11:12:36.947Z,7.40
2018-06-22T11:15:07.043Z,7.83
2018-06-22T11:17:37.079Z,6.53
2018-06-22T11:20:07.145Z,7.27
2018-06-22T11:22:37.154Z,6.97
2018-06-22T11:25:07.153Z,6.70
2018-06-22T11:27:37.192Z,7.57
2018-06-22T11:30:07.297Z,9.27
2018-06-22T11:32:37.252Z,8.17
2018-06-22T11:35:07.216Z,6.43
2018-06-22T11:37:37.467Z,7.23
2018-06-22T11:40:07.424Z,6.77
2018-06-22T11:42:37.371Z,6.70
2018-06-22T11:45:07.324Z,6.13
2018-06-22T11:47:37.490Z,4.00
2018-06-22T11:50:07.496Z,6.60
2018-06-22T11:52:37.582Z,7.77
2018-06-22T11:55:07.629Z,7.10
2018-06-22T11:57:37.583Z,6.83
2018-06-22T12:00:08.251Z,6.93
2018-06-22T12:02:38.442Z,6.50
2018-06-22T12:05:08.462Z,8.53
2018-06-22T12:07:38.671Z,6.53
2018-06-22T12:10:08.893Z,6.17
2018-06-22T12:12:38.881Z,6.50
2018-06-22T12:15:08.780Z,7.03
2018-06-22T12:17:39.896Z,6.73
2018-06-22T12:20:09.981Z,6.53
2018-06-22T12:22:40.005Z,6.83
2018-06-22T12:25:10.010Z,7.43
2018-06-22T12:27:40.208Z,6.30
2018-06-22T12:30:10.662Z,6.57
2018-06-22T12:32:40.607Z,8.33
2018-06-22T12:35:10.755Z,5.80
2018-06-22T12:37:40.672Z,6.27
2018-06-22T12:40:10.909Z,6.13
2018-06-22T12:45:39.221Z,5.40
2018-06-22T12:48:09.989Z,5.30
2018-06-22T12:50:40.969Z,5.70
2018-06-22T12:53:12.622Z,4.33
2018-06-22T12:55:43.722Z,5.80
2018-06-22T12:58:14.202Z,6.07
2018-06-22T13:00:45.021Z,5.90
2018-06-22T13:03:16.484Z,6.10
2018-06-22T13:05:48.162Z,5.67
2018-06-22T13:08:19.070Z,5.20
2018-06-22T13:10:50.007Z,5.90
2018-06-22T13:13:20.966Z,6.03
2018-06-22T13:15:51.542Z,6.07
2018-06-22T13:18:23.484Z,6.73
2018-06-22T13:20:54.313Z,5.80
2018-06-22T13:23:25.327Z,6.83
2018-06-22T13:25:56.597Z,6.60
2018-06-22T13:28:27.516Z,7.07
2018-06-22T13:30:58.236Z,6.67
2018-06-22T13:33:29.634Z,5.80
2018-06-22T13:36:06.936Z,6.33
2018-06-22T13:38:43.319Z,6.87
2018-06-22T13:41:14.192Z,6.37
2018-06-22T13:43:45.207Z,5.70
2018-06-22T13:46:15.916Z,5.90
2018-06-22T13:48:46.644Z,6.50
2018-06-22T13:51:17.284Z,6.20
2018-06-22T13:53:47.758Z,5.77
2018-06-22T13:56:18.376Z,6.00
2018-06-22T13:58:48.963Z,6.10
2018-06-22T14:01:20.478Z,7.93
2018-06-22T14:03:55.947Z,6.20
2018-06-22T14:06:31.636Z,5.10
2018-06-22T14:09:01.986Z,5.30
2018-06-22T14:11:32.639Z,8.33
2018-06-22T14:14:03.035Z,5.83
2018-06-22T14:16:33.652Z,5.30
2018-06-22T14:19:04.258Z,7.27
2018-06-22T14:21:35.266Z,6.07
2018-06-22T14:24:06.187Z,4.50
2018-06-22T14:26:36.990Z,5.50
2018-06-22T14:29:07.506Z,5.13
2018-06-22T14:31:37.902Z,6.20
2018-06-22T14:34:08.288Z,5.53
2018-06-22T14:36:38.709Z,7.27
2018-06-22T14:39:09.885Z,7.80
2018-06-22T14:41:40.886Z,5.83
2018-06-22T14:44:11.458Z,5.23
2018-06-22T14:46:42.821Z,5.73
2018-06-22T14:49:13.428Z,6.13
2018-06-22T14:51:43.893Z,5.40
2018-06-22T14:54:19.007Z,5.80
2018-06-22T14:56:54.394Z,6.20
2018-06-22T14:59:29.771Z,5.60
2018-06-22T15:02:05.103Z,5.27
2018-06-22T15:04:40.573Z,4.80
2018-06-22T15:07:16.119Z,5.30
2018-06-22T15:09:46.629Z,6.13
2018-06-22T15:12:37.781Z,4.70
2018-06-22T15:15:10.166Z,5.90
2018-06-22T15:17:45.543Z,6.37
2018-06-22T15:20:20.887Z,5.33
2018-06-22T15:22:51.669Z,5.70
2018-06-22T15:25:21.985Z,6.03
2018-06-22T15:27:52.724Z,6.63
2018-06-22T15:30:23.414Z,7.23
2018-06-22T15:32:53.879Z,8.13
2018-06-22T15:35:29.288Z,7.20
2018-06-22T15:38:04.548Z,8.00
2018-06-22T15:40:40.587Z,7.97
2018-06-22T15:43:16.581Z,7.23
2018-06-22T15:45:52.210Z,6.87
2018-06-22T15:48:28.153Z,8.20
2018-06-22T15:51:03.882Z,7.13
2018-06-22T15:53:40.245Z,8.07
2018-06-22T15:56:11.888Z,9.63
2018-06-22T15:58:43.037Z,6.53
2018-06-22T16:01:13.286Z,8.20
2018-06-22T16:03:48.779Z,7.20
2018-06-22T16:06:19.524Z,6.17
2018-06-22T16:08:50.234Z,6.27
2018-06-22T16:11:20.852Z,6.67
2018-06-22T16:13:56.108Z,7.03
2018-06-22T16:16:31.544Z,7.37
2018-06-22T16:19:06.817Z,9.63
2018-06-22T16:21:42.141Z,6.67
2018-06-22T16:24:18.176Z,7.73
2018-06-22T16:26:53.341Z,6.77
2018-06-22T16:29:23.668Z,6.40
2018-06-22T16:31:54.194Z,7.53
2018-06-22T16:34:24.812Z,6.47
2018-06-22T16:36:55.177Z,7.37
2018-06-22T16:39:25.994Z,7.17
2018-06-22T16:41:56.403Z,7.27
2018-06-22T16:44:26.965Z,6.93
2018-06-22T16:46:57.479Z,6.57
2018-06-22T16:49:28.306Z,6.67
2018-06-22T16:51:58.859Z,5.93
2018-06-22T16:54:30.078Z,7.93
2018-06-22T16:57:00.656Z,6.00
2018-06-22T16:59:31.121Z,6.20
2018-06-22T17:02:01.986Z,7.37
2018-06-22T17:04:32.369Z,6.30
2018-06-22T17:07:07.602Z,6.50
2018-06-22T17:09:42.855Z,6.50
2018-06-22T17:12:18.438Z,6.60
2018-06-22T17:14:53.771Z,6.33
2018-06-22T17:17:29.245Z,6.37
2018-06-22T17:20:03.864Z,6.93
2018-06-22T17:22:34.441Z,6.07
2018-06-22T17:25:05.328Z,7.00
2018-06-22T17:27:36.106Z,6.20
2018-06-22T17:30:07.555Z,5.87
2018-06-22T17:32:38.408Z,6.17
2018-06-22T17:35:14.679Z,6.33
2018-06-22T17:37:46.478Z,6.03
2018-06-22T17:40:21.555Z,9.83
2018-06-22T17:42:52.163Z,5.90
2018-06-22T17:45:22.682Z,5.97
2018-06-22T17:47:55.592Z,9.00
2018-06-22T17:50:29.625Z,6.67
2018-06-22T17:53:00.791Z,6.80
2018-06-22T17:55:31.669Z,7.50
2018-06-22T17:58:02.347Z,5.57
2018-06-22T18:00:39.628Z,6.53
2018-06-22T18:03:14.797Z,6.13
2018-06-22T18:05:50.233Z,8.00
2018-06-22T18:08:25.799Z,6.43
2018-06-22T18:11:03.106Z,6.30
2018-06-22T18:13:33.778Z,6.83
2018-06-22T18:16:04.706Z,7.73
2018-06-22T18:18:35.527Z,6.30
2018-06-22T18:21:06.146Z,6.63
2018-06-22T18:23:36.618Z,6.43
2018-06-22T18:26:07.433Z,6.10
2018-06-22T18:28:38.894Z,6.07
2018-06-22T18:31:09.626Z,6.30
2018-06-22T18:33:42.801Z,6.03
2018-06-22T18:36:13.252Z,6.83
2018-06-22T18:38:43.894Z,8.70
2018-06-22T18:41:14.483Z,7.10
2018-06-22T18:43:49.921Z,6.67
2018-06-22T18:46:20.461Z,9.17
2018-06-22T18:48:50.883Z,10.27
2018-06-22T18:51:21.534Z,6.40
2018-06-22T18:53:56.783Z,7.57
2018-06-22T18:56:32.371Z,7.27
2018-06-22T18:59:07.624Z,8.93
2018-06-22T19:01:42.961Z,9.47
2018-06-22T19:04:13.408Z,6.93
2018-06-22T19:06:43.946Z,6.87
2018-06-22T19:09:14.791Z,7.90
2018-06-22T19:11:45.670Z,8.27
2018-06-22T19:14:16.122Z,8.70
2018-06-22T19:16:46.915Z,9.80
2018-06-22T19:19:17.558Z,8.80
2018-06-22T19:21:48.091Z,9.30
2018-06-22T19:24:18.977Z,8.87
2018-06-22T19:26:49.520Z,10.90
2018-06-22T19:29:20.835Z,10.70
2018-06-22T19:31:52.209Z,10.03
2018-06-22T19:34:26.810Z,8.53
2018-06-22T19:36:57.255Z,8.53
2018-06-22T19:39:27.756Z,9.33
2018-06-22T19:41:58.201Z,9.17
2018-06-22T19:44:33.571Z,9.53
2018-06-22T19:47:09.705Z,9.13
2018-06-22T19:49:44.903Z,6.20
2018-06-22T19:52:20.262Z,7.23
2018-06-22T19:54:51.796Z,8.07
2018-06-22T19:57:23.896Z,5.90
2018-06-22T19:59:54.993Z,7.37
2018-06-22T20:02:25.748Z,7.97
2018-06-22T20:04:56.465Z,7.13
2018-06-22T20:07:27.195Z,8.57
2018-06-22T20:09:57.760Z,9.93
2018-06-22T20:12:28.266Z,8.73
2018-06-22T20:14:58.988Z,8.53
2018-06-22T20:17:29.781Z,7.37
2018-06-22T20:20:01.779Z,5.83
2018-06-22T20:22:32.542Z,6.97
2018-06-22T20:25:08.728Z,8.23
2018-06-22T20:27:52.351Z,7.83
2018-06-22T20:30:27.590Z,7.53
2018-06-22T20:32:58.256Z,7.03
2018-06-22T20:35:33.662Z,6.53
2018-06-22T20:40:52.949Z,7.67
2018-06-22T20:43:28.865Z,6.97
2018-06-22T20:46:00.170Z,7.50
2018-06-22T20:50:43.392Z,7.87
2018-06-22T20:53:13.841Z,7.23
2018-06-22T20:55:45.142Z,6.80
2018-06-22T20:58:15.681Z,7.67
2018-06-22T21:00:46.293Z,5.77
2018-06-22T21:03:17.118Z,5.40
2018-06-22T21:05:47.622Z,3.83
2018-06-22T21:08:17.996Z,5.77
2018-06-22T21:10:49.004Z,5.93
2018-06-22T21:13:22.730Z,6.33
2018-06-22T21:15:53.294Z,7.00
2018-06-22T21:18:24.689Z,7.33
2018-06-22T21:21:00.508Z,6.17
2018-06-22T21:23:32.286Z,6.73
2018-06-22T21:26:03.131Z,5.93
2018-06-22T21:28:38.884Z,6.13
2018-06-22T21:31:14.771Z,6.60
2018-06-22T21:33:50.156Z,7.60
2018-06-22T21:36:25.542Z,5.97
2018-06-22T21:38:58.481Z,5.87
2018-06-22T21:41:29.411Z,6.40
2018-06-22T21:44:00.929Z,6.23
2018-06-22T21:46:31.692Z,6.00
2018-06-22T21:49:03.398Z,5.57
2018-06-22T21:51:34.453Z,5.77
2018-06-22T21:54:05.360Z,5.50
2018-06-22T21:56:35.976Z,6.77
2018-06-22T21:59:07.063Z,5.57
2018-06-22T22:01:37.847Z,5.17
2018-06-22T22:04:08.478Z,4.90
2018-06-22T22:07:14.956Z,5.00
2018-06-22T22:09:55.914Z,5.33
2018-06-22T22:12:26.396Z,5.33
2018-06-22T22:14:56.891Z,4.20
2018-06-22T22:17:27.728Z,3.60
2018-06-22T22:19:58.496Z,4.00
2018-06-22T22:22:29.445Z,4.23
2018-06-22T22:25:00.296Z,4.60
2018-06-22T22:27:31.114Z,3.57
2018-06-22T22:30:05.058Z,4.23
2018-06-22T22:32:36.166Z,3.43
2018-06-22T22:35:06.784Z,4.13
2018-06-22T22:37:37.286Z,5.47
2018-06-22T22:40:09.287Z,3.60
2018-06-22T22:42:40.743Z,5.37
2018-06-22T22:47:50.398Z,3.10
2018-06-22T22:50:29.687Z,3.50
2018-06-22T22:53:01.394Z,3.87
2018-06-22T22:55:32.856Z,6.33
2018-06-22T22:58:05.193Z,3.47
2018-06-22T23:00:36.680Z,3.83
2018-06-22T23:03:07.407Z,2.60
2018-06-22T23:05:38.068Z,2.87
2018-06-22T23:08:08.811Z,2.70
2018-06-22T23:10:39.615Z,2.70
2018-06-22T23:37:08.251Z,2.80
2018-06-22T23:39:38.896Z,2.60
2018-06-22T23:42:09.988Z,2.57
2018-06-22T23:44:41.436Z,3.83
2018-06-22T23:47:11.998Z,2.47
2018-06-22T23:49:43.227Z,2.67
2018-06-22T23:52:13.563Z,2.10
2018-06-22T23:54:44.243Z,4.27
2018-06-22T23:57:14.995Z,2.03
2018-06-22T23:59:45.523Z,2.40
